sensor_id;sensor_type;location;lat;lon;timestamp;noise_LAeq;noise_LA_min;noise_LA_max;noise_LA01;noise_LA95
64393;Laerm;50712;49.506;10.400;2023-04-24T00:00:25;29.39;27.76;33.02;;
64393;Laerm;50712;49.506;10.400;2023-04-24T00:00:56;30.37;28.26;33.84;;
64393;Laerm;50712;49.506;10.400;2023-04-24T00:01:26;30.78;28.55;35.51;;
64393;Laerm;50712;49.506;10.400;2023-04-24T00:01:59;30.40;28.52;34.84;;
64393;Laerm;50712;49.506;10.400;2023-04-24T00:02:29;29.70;27.98;37.65;;
64393;Laerm;50712;49.506;10.400;2023-04-24T00:03:00;29.25;28.03;31.75;;
64393;Laerm;50712;49.506;10.400;2023-04-24T00:03:30;29.05;27.75;37.88;;
64393;Laerm;50712;49.506;10.400;2023-04-24T00:04:01;29.67;27.79;33.58;;
64393;Laerm;50712;49.506;10.400;2023-04-24T00:04:31;31.42;27.63;41.84;;
64393;Laerm;50712;49.506;10.400;2023-04-24T00:05:02;28.79;27.68;30.87;;
64393;Laerm;50712;49.506;10.400;2023-04-24T00:05:33;28.48;27.23;29.44;;
64393;Laerm;50712;49.506;10.400;2023-04-24T00:06:04;28.50;27.40;33.02;;
64393;Laerm;50712;49.506;10.400;2023-04-24T00:06:35;28.48;27.53;29.83;;
64393;Laerm;50712;49.506;10.400;2023-04-24T00:07:07;28.54;27.49;29.72;;
64393;Laerm;50712;49.506;10.400;2023-04-24T00:07:37;28.51;27.41;29.61;;
64393;Laerm;50712;49.506;10.400;2023-04-24T00:08:07;28.55;27.37;34.73;;
64393;Laerm;50712;49.506;10.400;2023-04-24T00:08:38;28.84;27.45;45.39;;
64393;Laerm;50712;49.506;10.400;2023-04-24T00:09:09;28.54;27.27;29.68;;
64393;Laerm;50712;49.506;10.400;2023-04-24T00:09:43;28.74;27.58;30.81;;
64393;Laerm;50712;49.506;10.400;2023-04-24T00:10:13;29.28;27.65;31.61;;
64393;Laerm;50712;49.506;10.400;2023-04-24T00:10:44;29.05;27.61;31.16;;
64393;Laerm;50712;49.506;10.400;2023-04-24T00:11:14;28.88;27.50;31.13;;
64393;Laerm;50712;49.506;10.400;2023-04-24T00:11:44;28.91;27.59;30.51;;
64393;Laerm;50712;49.506;10.400;2023-04-24T00:12:15;29.45;28.07;31.91;;
64393;Laerm;50712;49.506;10.400;2023-04-24T00:12:45;29.22;28.00;30.72;;
64393;Laerm;50712;49.506;10.400;2023-04-24T00:13:16;29.47;27.71;35.91;;
64393;Laerm;50712;49.506;10.400;2023-04-24T00:13:46;28.94;27.71;30.09;;
64393;Laerm;50712;49.506;10.400;2023-04-24T00:14:16;28.67;27.24;41.51;;
64393;Laerm;50712;49.506;10.400;2023-04-24T00:14:47;28.68;27.40;35.41;;
64393;Laerm;50712;49.506;10.400;2023-04-24T00:15:17;28.71;27.44;37.98;;
64393;Laerm;50712;49.506;10.400;2023-04-24T00:15:47;28.52;27.14;34.06;;
64393;Laerm;50712;49.506;10.400;2023-04-24T00:16:18;28.50;27.51;29.88;;
64393;Laerm;50712;49.506;10.400;2023-04-24T00:16:48;28.49;27.39;31.51;;
64393;Laerm;50712;49.506;10.400;2023-04-24T00:17:19;28.48;27.11;29.57;;
64393;Laerm;50712;49.506;10.400;2023-04-24T00:17:52;28.80;27.48;43.76;;
64393;Laerm;50712;49.506;10.400;2023-04-24T00:18:23;28.60;27.36;29.59;;
64393;Laerm;50712;49.506;10.400;2023-04-24T00:18:54;28.60;27.28;29.81;;
64393;Laerm;50712;49.506;10.400;2023-04-24T00:19:24;28.67;27.47;36.60;;
64393;Laerm;50712;49.506;10.400;2023-04-24T00:19:54;28.62;27.15;29.78;;
64393;Laerm;50712;49.506;10.400;2023-04-24T00:20:34;28.63;27.39;29.92;;
64393;Laerm;50712;49.506;10.400;2023-04-24T00:21:38;28.82;27.50;33.64;;
64393;Laerm;50712;49.506;10.400;2023-04-24T00:22:08;31.53;27.72;49.79;;
64393;Laerm;50712;49.506;10.400;2023-04-24T00:22:38;29.50;27.71;36.51;;
64393;Laerm;50712;49.506;10.400;2023-04-24T00:23:09;28.85;27.76;33.09;;
64393;Laerm;50712;49.506;10.400;2023-04-24T00:23:39;28.74;27.54;30.51;;
64393;Laerm;50712;49.506;10.400;2023-04-24T00:24:09;28.72;27.40;30.34;;
64393;Laerm;50712;49.506;10.400;2023-04-24T00:24:40;28.64;27.03;29.86;;
64393;Laerm;50712;49.506;10.400;2023-04-24T00:25:10;28.57;27.25;30.03;;
64393;Laerm;50712;49.506;10.400;2023-04-24T00:25:41;28.58;27.44;29.65;;
64393;Laerm;50712;49.506;10.400;2023-04-24T00:26:11;28.58;27.46;30.17;;
64393;Laerm;50712;49.506;10.400;2023-04-24T00:26:42;28.43;27.35;29.40;;
64393;Laerm;50712;49.506;10.400;2023-04-24T00:27:12;28.54;27.26;34.42;;
64393;Laerm;50712;49.506;10.400;2023-04-24T00:27:42;28.48;27.31;29.61;;
64393;Laerm;50712;49.506;10.400;2023-04-24T00:28:13;28.43;27.28;29.45;;
64393;Laerm;50712;49.506;10.400;2023-04-24T00:28:44;28.46;27.24;29.46;;
64393;Laerm;50712;49.506;10.400;2023-04-24T00:29:14;28.51;27.27;29.64;;
64393;Laerm;50712;49.506;10.400;2023-04-24T00:29:44;28.41;27.16;30.59;;
64393;Laerm;50712;49.506;10.400;2023-04-24T00:30:15;28.43;27.14;29.89;;
64393;Laerm;50712;49.506;10.400;2023-04-24T00:30:45;28.52;27.41;29.66;;
64393;Laerm;50712;49.506;10.400;2023-04-24T00:31:15;28.51;27.17;31.02;;
64393;Laerm;50712;49.506;10.400;2023-04-24T00:31:46;28.54;27.47;31.51;;
64393;Laerm;50712;49.506;10.400;2023-04-24T00:32:18;28.52;27.31;29.66;;
64393;Laerm;50712;49.506;10.400;2023-04-24T00:32:49;28.51;27.24;29.59;;
64393;Laerm;50712;49.506;10.400;2023-04-24T00:33:19;28.45;27.38;29.54;;
64393;Laerm;50712;49.506;10.400;2023-04-24T00:33:50;28.47;26.86;29.67;;
64393;Laerm;50712;49.506;10.400;2023-04-24T00:34:21;28.51;27.37;39.56;;
64393;Laerm;50712;49.506;10.400;2023-04-24T00:34:51;28.42;27.24;29.64;;
64393;Laerm;50712;49.506;10.400;2023-04-24T00:35:21;28.48;27.31;31.13;;
64393;Laerm;50712;49.506;10.400;2023-04-24T00:35:53;28.48;27.31;31.13;;
64393;Laerm;50712;49.506;10.400;2023-04-24T00:36:23;28.49;27.42;33.43;;
64393;Laerm;50712;49.506;10.400;2023-04-24T00:36:54;28.47;27.37;29.52;;
64393;Laerm;50712;49.506;10.400;2023-04-24T00:37:25;28.56;27.24;31.52;;
64393;Laerm;50712;49.506;10.400;2023-04-24T00:37:55;29.27;27.73;34.48;;
64393;Laerm;50712;49.506;10.400;2023-04-24T00:38:25;30.38;28.11;40.11;;
64393;Laerm;50712;49.506;10.400;2023-04-24T00:38:56;29.78;27.79;33.90;;
64393;Laerm;50712;49.506;10.400;2023-04-24T00:39:27;29.03;27.53;32.52;;
64393;Laerm;50712;49.506;10.400;2023-04-24T00:39:57;29.26;27.70;33.82;;
64393;Laerm;50712;49.506;10.400;2023-04-24T00:40:28;29.09;27.61;30.71;;
64393;Laerm;50712;49.506;10.400;2023-04-24T00:40:59;29.70;28.03;34.29;;
64393;Laerm;50712;49.506;10.400;2023-04-24T00:41:30;29.40;27.50;31.62;;
64393;Laerm;50712;49.506;10.400;2023-04-24T00:42:00;29.19;27.61;31.33;;
64393;Laerm;50712;49.506;10.400;2023-04-24T00:42:32;28.73;27.61;30.94;;
64393;Laerm;50712;49.506;10.400;2023-04-24T00:43:03;28.59;27.13;30.01;;
64393;Laerm;50712;49.506;10.400;2023-04-24T00:43:34;28.56;27.50;29.99;;
64393;Laerm;50712;49.506;10.400;2023-04-24T00:44:04;28.51;27.36;29.68;;
64393;Laerm;50712;49.506;10.400;2023-04-24T00:44:35;28.49;27.33;29.64;;
64393;Laerm;50712;49.506;10.400;2023-04-24T00:45:06;28.55;27.44;29.52;;
64393;Laerm;50712;49.506;10.400;2023-04-24T00:45:37;28.58;27.22;29.74;;
64393;Laerm;50712;49.506;10.400;2023-04-24T00:46:07;28.93;27.58;32.63;;
64393;Laerm;50712;49.506;10.400;2023-04-24T00:46:38;30.25;28.00;38.00;;
64393;Laerm;50712;49.506;10.400;2023-04-24T00:47:09;30.26;27.94;37.52;;
64393;Laerm;50712;49.506;10.400;2023-04-24T00:47:41;29.41;27.80;34.47;;
64393;Laerm;50712;49.506;10.400;2023-04-24T00:48:11;29.00;27.48;31.37;;
64393;Laerm;50712;49.506;10.400;2023-04-24T00:48:42;29.01;27.59;35.23;;
64393;Laerm;50712;49.506;10.400;2023-04-24T00:49:13;28.99;27.81;31.77;;
64393;Laerm;50712;49.506;10.400;2023-04-24T00:49:44;29.41;27.87;32.22;;
64393;Laerm;50712;49.506;10.400;2023-04-24T00:50:15;31.97;28.40;38.12;;
64393;Laerm;50712;49.506;10.400;2023-04-24T00:50:45;41.75;32.91;51.61;;
64393;Laerm;50712;49.506;10.400;2023-04-24T00:51:18;39.56;31.12;46.75;;
64393;Laerm;50712;49.506;10.400;2023-04-24T00:51:48;34.25;29.98;39.63;;
64393;Laerm;50712;49.506;10.400;2023-04-24T00:52:19;31.55;28.31;42.11;;
64393;Laerm;50712;49.506;10.400;2023-04-24T00:52:50;31.20;28.79;37.85;;
64393;Laerm;50712;49.506;10.400;2023-04-24T00:53:21;30.12;28.18;36.14;;
64393;Laerm;50712;49.506;10.400;2023-04-24T00:53:51;29.27;27.52;31.26;;
64393;Laerm;50712;49.506;10.400;2023-04-24T00:54:22;28.81;27.43;30.10;;
64393;Laerm;50712;49.506;10.400;2023-04-24T00:54:54;29.74;27.65;41.76;;
64393;Laerm;50712;49.506;10.400;2023-04-24T00:55:25;28.90;27.33;38.62;;
64393;Laerm;50712;49.506;10.400;2023-04-24T00:55:57;30.38;27.87;41.79;;
64393;Laerm;50712;49.506;10.400;2023-04-24T00:56:28;30.32;27.62;43.56;;
64393;Laerm;50712;49.506;10.400;2023-04-24T00:56:58;29.05;27.53;32.02;;
64393;Laerm;50712;49.506;10.400;2023-04-24T00:57:29;29.03;27.67;31.14;;
64393;Laerm;50712;49.506;10.400;2023-04-24T00:58:00;29.52;27.73;33.29;;
64393;Laerm;50712;49.506;10.400;2023-04-24T00:58:30;28.78;27.38;31.86;;
64393;Laerm;50712;49.506;10.400;2023-04-24T00:59:02;28.62;27.49;29.82;;
64393;Laerm;50712;49.506;10.400;2023-04-24T00:59:32;28.66;27.54;31.22;;
64393;Laerm;50712;49.506;10.400;2023-04-24T01:00:05;28.59;27.47;30.35;;
64393;Laerm;50712;49.506;10.400;2023-04-24T01:00:35;28.91;27.57;31.00;;
64393;Laerm;50712;49.506;10.400;2023-04-24T01:01:06;28.74;27.53;30.35;;
64393;Laerm;50712;49.506;10.400;2023-04-24T01:01:37;28.61;27.56;29.74;;
64393;Laerm;50712;49.506;10.400;2023-04-24T01:02:12;28.51;27.31;29.84;;
64393;Laerm;50712;49.506;10.400;2023-04-24T01:02:43;28.65;27.54;33.45;;
64393;Laerm;50712;49.506;10.400;2023-04-24T01:03:15;28.62;27.46;29.76;;
64393;Laerm;50712;49.506;10.400;2023-04-24T01:03:45;28.66;27.57;30.18;;
64393;Laerm;50712;49.506;10.400;2023-04-24T01:04:16;32.91;27.47;40.53;;
64393;Laerm;50712;49.506;10.400;2023-04-24T01:04:49;30.22;27.53;39.20;;
64393;Laerm;50712;49.506;10.400;2023-04-24T01:05:21;28.54;27.56;30.02;;
64393;Laerm;50712;49.506;10.400;2023-04-24T01:05:52;28.71;27.40;30.69;;
64393;Laerm;50712;49.506;10.400;2023-04-24T01:06:27;28.64;27.50;31.34;;
64393;Laerm;50712;49.506;10.400;2023-04-24T01:06:58;28.62;27.26;30.31;;
64393;Laerm;50712;49.506;10.400;2023-04-24T01:07:28;28.77;27.69;30.37;;
64393;Laerm;50712;49.506;10.400;2023-04-24T01:07:59;29.28;27.83;32.05;;
64393;Laerm;50712;49.506;10.400;2023-04-24T01:08:30;28.99;27.88;31.68;;
64393;Laerm;50712;49.506;10.400;2023-04-24T01:09:00;29.28;27.61;31.45;;
64393;Laerm;50712;49.506;10.400;2023-04-24T01:09:34;30.42;27.85;38.70;;
64393;Laerm;50712;49.506;10.400;2023-04-24T01:10:06;30.45;27.93;36.71;;
64393;Laerm;50712;49.506;10.400;2023-04-24T01:10:38;29.66;27.87;36.56;;
64393;Laerm;50712;49.506;10.400;2023-04-24T01:11:11;28.77;27.57;29.76;;
64393;Laerm;50712;49.506;10.400;2023-04-24T01:11:42;28.70;27.42;31.46;;
64393;Laerm;50712;49.506;10.400;2023-04-24T01:12:16;28.71;27.10;35.30;;
64393;Laerm;50712;49.506;10.400;2023-04-24T01:12:48;28.62;27.35;31.29;;
64393;Laerm;50712;49.506;10.400;2023-04-24T01:13:19;28.77;27.41;30.83;;
64393;Laerm;50712;49.506;10.400;2023-04-24T01:13:51;28.86;27.63;36.37;;
64393;Laerm;50712;49.506;10.400;2023-04-24T01:14:22;28.85;27.51;30.38;;
64393;Laerm;50712;49.506;10.400;2023-04-24T01:14:54;28.99;27.73;30.74;;
64393;Laerm;50712;49.506;10.400;2023-04-24T01:15:25;29.17;27.77;32.58;;
64393;Laerm;50712;49.506;10.400;2023-04-24T01:15:55;29.79;28.14;34.14;;
64393;Laerm;50712;49.506;10.400;2023-04-24T01:16:25;29.67;28.02;33.38;;
64393;Laerm;50712;49.506;10.400;2023-04-24T01:16:57;29.40;27.92;36.54;;
64393;Laerm;50712;49.506;10.400;2023-04-24T01:17:28;28.99;27.60;31.16;;
64393;Laerm;50712;49.506;10.400;2023-04-24T01:17:58;29.14;27.78;32.76;;
64393;Laerm;50712;49.506;10.400;2023-04-24T01:18:28;29.33;27.79;32.42;;
64393;Laerm;50712;49.506;10.400;2023-04-24T01:18:59;29.07;27.87;31.67;;
64393;Laerm;50712;49.506;10.400;2023-04-24T01:19:30;29.08;27.55;30.88;;
64393;Laerm;50712;49.506;10.400;2023-04-24T01:20:01;29.24;27.84;32.30;;
64393;Laerm;50712;49.506;10.400;2023-04-24T01:20:36;28.94;27.65;31.25;;
64393;Laerm;50712;49.506;10.400;2023-04-24T01:21:42;29.44;27.89;33.25;;
64393;Laerm;50712;49.506;10.400;2023-04-24T01:22:14;28.91;27.50;30.73;;
64393;Laerm;50712;49.506;10.400;2023-04-24T01:22:44;29.33;27.54;31.72;;
64393;Laerm;50712;49.506;10.400;2023-04-24T01:23:15;28.93;27.60;31.41;;
64393;Laerm;50712;49.506;10.400;2023-04-24T01:23:46;28.96;27.47;32.26;;
64393;Laerm;50712;49.506;10.400;2023-04-24T01:24:16;28.87;27.39;32.62;;
64393;Laerm;50712;49.506;10.400;2023-04-24T01:24:49;28.76;27.43;31.71;;
64393;Laerm;50712;49.506;10.400;2023-04-24T01:25:19;28.64;27.43;32.41;;
64393;Laerm;50712;49.506;10.400;2023-04-24T01:25:50;28.58;27.41;29.85;;
64393;Laerm;50712;49.506;10.400;2023-04-24T01:26:22;28.55;27.36;29.80;;
64393;Laerm;50712;49.506;10.400;2023-04-24T01:26:53;28.51;27.32;29.71;;
64393;Laerm;50712;49.506;10.400;2023-04-24T01:27:23;28.51;27.60;29.87;;
64393;Laerm;50712;49.506;10.400;2023-04-24T01:27:54;28.81;27.35;30.35;;
64393;Laerm;50712;49.506;10.400;2023-04-24T01:28:24;28.74;27.63;30.18;;
64393;Laerm;50712;49.506;10.400;2023-04-24T01:28:56;29.11;27.74;32.23;;
64393;Laerm;50712;49.506;10.400;2023-04-24T01:29:26;29.32;27.81;31.80;;
64393;Laerm;50712;49.506;10.400;2023-04-24T01:29:57;29.71;27.97;35.18;;
64393;Laerm;50712;49.506;10.400;2023-04-24T01:30:28;30.43;28.08;39.49;;
64393;Laerm;50712;49.506;10.400;2023-04-24T01:30:58;29.76;27.88;36.04;;
64393;Laerm;50712;49.506;10.400;2023-04-24T01:31:30;28.94;27.79;31.72;;
64393;Laerm;50712;49.506;10.400;2023-04-24T01:32:00;28.81;27.65;30.98;;
64393;Laerm;50712;49.506;10.400;2023-04-24T01:32:32;28.72;27.57;32.35;;
64393;Laerm;50712;49.506;10.400;2023-04-24T01:33:02;28.90;27.54;31.04;;
64393;Laerm;50712;49.506;10.400;2023-04-24T01:33:33;29.14;27.45;31.25;;
64393;Laerm;50712;49.506;10.400;2023-04-24T01:34:03;29.11;27.63;33.10;;
64393;Laerm;50712;49.506;10.400;2023-04-24T01:34:34;29.03;27.62;31.63;;
64393;Laerm;50712;49.506;10.400;2023-04-24T01:35:05;29.20;27.51;31.89;;
64393;Laerm;50712;49.506;10.400;2023-04-24T01:35:37;31.05;27.94;38.00;;
64393;Laerm;50712;49.506;10.400;2023-04-24T01:36:10;32.38;29.29;39.67;;
64393;Laerm;50712;49.506;10.400;2023-04-24T01:36:41;32.24;28.91;38.13;;
64393;Laerm;50712;49.506;10.400;2023-04-24T01:37:12;30.66;28.20;36.41;;
64393;Laerm;50712;49.506;10.400;2023-04-24T01:37:43;37.48;28.90;48.71;;
64393;Laerm;50712;49.506;10.400;2023-04-24T01:38:14;38.74;31.57;48.85;;
64393;Laerm;50712;49.506;10.400;2023-04-24T01:38:45;33.63;29.56;39.50;;
64393;Laerm;50712;49.506;10.400;2023-04-24T01:39:15;31.11;27.76;39.95;;
64393;Laerm;50712;49.506;10.400;2023-04-24T01:39:46;29.19;27.45;32.57;;
64393;Laerm;50712;49.506;10.400;2023-04-24T01:40:17;28.76;27.56;30.07;;
64393;Laerm;50712;49.506;10.400;2023-04-24T01:40:47;28.57;27.32;29.51;;
64393;Laerm;50712;49.506;10.400;2023-04-24T01:41:18;28.58;27.25;29.65;;
64393;Laerm;50712;49.506;10.400;2023-04-24T01:41:49;28.63;27.32;29.83;;
64393;Laerm;50712;49.506;10.400;2023-04-24T01:42:23;28.68;27.36;30.64;;
64393;Laerm;50712;49.506;10.400;2023-04-24T01:42:54;28.93;27.66;33.36;;
64393;Laerm;50712;49.506;10.400;2023-04-24T01:43:24;29.55;27.81;34.12;;
64393;Laerm;50712;49.506;10.400;2023-04-24T01:43:55;28.80;27.67;30.06;;
64393;Laerm;50712;49.506;10.400;2023-04-24T01:44:27;28.79;27.09;30.36;;
64393;Laerm;50712;49.506;10.400;2023-04-24T01:44:59;32.38;27.83;43.78;;
64393;Laerm;50712;49.506;10.400;2023-04-24T01:45:29;48.79;33.58;57.00;;
64393;Laerm;50712;49.506;10.400;2023-04-24T01:46:00;46.71;35.79;55.95;;
64393;Laerm;50712;49.506;10.400;2023-04-24T01:46:30;39.09;31.17;47.16;;
64393;Laerm;50712;49.506;10.400;2023-04-24T01:47:01;34.45;29.47;40.98;;
64393;Laerm;50712;49.506;10.400;2023-04-24T01:47:32;31.83;27.82;40.64;;
64393;Laerm;50712;49.506;10.400;2023-04-24T01:48:02;29.18;27.79;31.37;;
64393;Laerm;50712;49.506;10.400;2023-04-24T01:48:33;28.98;27.88;30.31;;
64393;Laerm;50712;49.506;10.400;2023-04-24T01:49:04;28.81;27.26;30.82;;
64393;Laerm;50712;49.506;10.400;2023-04-24T01:49:34;28.78;27.51;29.88;;
64393;Laerm;50712;49.506;10.400;2023-04-24T01:50:05;28.96;27.76;30.62;;
64393;Laerm;50712;49.506;10.400;2023-04-24T01:50:36;29.15;27.66;34.11;;
64393;Laerm;50712;49.506;10.400;2023-04-24T01:51:07;31.04;27.85;39.40;;
64393;Laerm;50712;49.506;10.400;2023-04-24T01:51:38;29.63;27.77;33.79;;
64393;Laerm;50712;49.506;10.400;2023-04-24T01:52:08;29.48;28.01;32.43;;
64393;Laerm;50712;49.506;10.400;2023-04-24T01:52:39;34.09;28.01;55.25;;
64393;Laerm;50712;49.506;10.400;2023-04-24T01:53:09;34.45;27.75;58.03;;
64393;Laerm;50712;49.506;10.400;2023-04-24T01:53:40;29.46;28.05;33.71;;
64393;Laerm;50712;49.506;10.400;2023-04-24T01:54:10;30.66;27.92;38.08;;
64393;Laerm;50712;49.506;10.400;2023-04-24T01:55:11;41.09;32.05;49.16;;
64393;Laerm;50712;49.506;10.400;2023-04-24T01:55:41;42.41;33.33;50.67;;
64393;Laerm;50712;49.506;10.400;2023-04-24T01:56:12;36.87;29.50;44.21;;
64393;Laerm;50712;49.506;10.400;2023-04-24T01:56:43;32.23;28.68;39.34;;
64393;Laerm;50712;49.506;10.400;2023-04-24T01:57:14;30.75;28.61;37.49;;
64393;Laerm;50712;49.506;10.400;2023-04-24T01:57:46;30.88;28.69;34.60;;
64393;Laerm;50712;49.506;10.400;2023-04-24T01:58:16;33.80;28.51;40.15;;
64393;Laerm;50712;49.506;10.400;2023-04-24T01:58:48;37.26;32.09;44.29;;
64393;Laerm;50712;49.506;10.400;2023-04-24T01:59:20;34.23;30.10;40.35;;
64393;Laerm;50712;49.506;10.400;2023-04-24T01:59:51;33.90;29.76;40.29;;
64393;Laerm;50712;49.506;10.400;2023-04-24T02:00:22;33.41;29.44;40.43;;
64393;Laerm;50712;49.506;10.400;2023-04-24T02:00:52;31.76;29.32;36.66;;
64393;Laerm;50712;49.506;10.400;2023-04-24T02:01:24;31.47;28.65;36.57;;
64393;Laerm;50712;49.506;10.400;2023-04-24T02:01:55;30.27;28.45;34.90;;
64393;Laerm;50712;49.506;10.400;2023-04-24T02:02:25;30.59;28.54;36.63;;
64393;Laerm;50712;49.506;10.400;2023-04-24T02:02:57;29.58;27.95;32.35;;
64393;Laerm;50712;49.506;10.400;2023-04-24T02:03:30;29.61;27.92;32.53;;
64393;Laerm;50712;49.506;10.400;2023-04-24T02:04:03;30.26;28.58;32.63;;
64393;Laerm;50712;49.506;10.400;2023-04-24T02:04:33;29.78;28.22;32.38;;
64393;Laerm;50712;49.506;10.400;2023-04-24T02:05:06;29.14;27.72;32.16;;
64393;Laerm;50712;49.506;10.400;2023-04-24T02:05:40;30.96;28.18;38.15;;
64393;Laerm;50712;49.506;10.400;2023-04-24T02:06:10;29.93;28.14;32.54;;
64393;Laerm;50712;49.506;10.400;2023-04-24T02:06:40;29.99;28.15;34.87;;
64393;Laerm;50712;49.506;10.400;2023-04-24T02:07:11;29.46;27.92;31.28;;
64393;Laerm;50712;49.506;10.400;2023-04-24T02:07:41;29.65;27.79;47.05;;
64393;Laerm;50712;49.506;10.400;2023-04-24T02:08:13;29.62;27.61;35.98;;
64393;Laerm;50712;49.506;10.400;2023-04-24T02:08:43;29.68;27.68;32.95;;
64393;Laerm;50712;49.506;10.400;2023-04-24T02:09:14;29.99;28.32;33.95;;
64393;Laerm;50712;49.506;10.400;2023-04-24T02:09:44;30.71;28.57;37.31;;
64393;Laerm;50712;49.506;10.400;2023-04-24T02:10:15;29.52;28.08;32.17;;
64393;Laerm;50712;49.506;10.400;2023-04-24T02:10:46;29.20;27.66;32.64;;
64393;Laerm;50712;49.506;10.400;2023-04-24T02:11:16;29.06;27.58;30.74;;
64393;Laerm;50712;49.506;10.400;2023-04-24T02:11:47;28.84;27.46;30.62;;
64393;Laerm;50712;49.506;10.400;2023-04-24T02:12:17;29.12;27.43;33.24;;
64393;Laerm;50712;49.506;10.400;2023-04-24T02:12:48;29.40;27.63;32.69;;
64393;Laerm;50712;49.506;10.400;2023-04-24T02:13:19;29.38;28.05;32.75;;
64393;Laerm;50712;49.506;10.400;2023-04-24T02:13:49;28.85;27.77;30.10;;
64393;Laerm;50712;49.506;10.400;2023-04-24T02:14:20;28.78;27.53;30.06;;
64393;Laerm;50712;49.506;10.400;2023-04-24T02:14:50;28.78;27.64;30.20;;
64393;Laerm;50712;49.506;10.400;2023-04-24T02:15:21;29.40;28.02;32.78;;
64393;Laerm;50712;49.506;10.400;2023-04-24T02:15:51;30.05;27.99;39.00;;
64393;Laerm;50712;49.506;10.400;2023-04-24T02:16:21;28.97;27.65;34.78;;
64393;Laerm;50712;49.506;10.400;2023-04-24T02:16:52;29.32;27.94;32.40;;
64393;Laerm;50712;49.506;10.400;2023-04-24T02:17:23;29.41;27.82;33.51;;
64393;Laerm;50712;49.506;10.400;2023-04-24T02:17:53;29.29;27.90;34.03;;
64393;Laerm;50712;49.506;10.400;2023-04-24T02:18:24;29.14;27.84;30.94;;
64393;Laerm;50712;49.506;10.400;2023-04-24T02:18:54;29.77;27.82;35.38;;
64393;Laerm;50712;49.506;10.400;2023-04-24T02:19:25;30.09;28.00;33.98;;
64393;Laerm;50712;49.506;10.400;2023-04-24T02:20:25;29.11;27.74;30.56;;
64393;Laerm;50712;49.506;10.400;2023-04-24T02:20:57;28.99;27.67;31.24;;
64393;Laerm;50712;49.506;10.400;2023-04-24T02:21:27;29.07;27.77;31.56;;
64393;Laerm;50712;49.506;10.400;2023-04-24T02:21:58;29.44;27.74;35.63;;
64393;Laerm;50712;49.506;10.400;2023-04-24T02:22:28;29.48;28.04;43.99;;
64393;Laerm;50712;49.506;10.400;2023-04-24T02:23:29;29.35;27.84;39.85;;
64393;Laerm;50712;49.506;10.400;2023-04-24T02:23:59;29.30;27.60;41.61;;
64393;Laerm;50712;49.506;10.400;2023-04-24T02:24:30;29.10;27.89;31.55;;
64393;Laerm;50712;49.506;10.400;2023-04-24T02:25:00;29.05;27.77;30.44;;
64393;Laerm;50712;49.506;10.400;2023-04-24T02:25:31;29.66;27.81;32.53;;
64393;Laerm;50712;49.506;10.400;2023-04-24T02:26:01;29.48;27.90;36.16;;
64393;Laerm;50712;49.506;10.400;2023-04-24T02:26:31;30.62;28.36;33.78;;
64393;Laerm;50712;49.506;10.400;2023-04-24T02:27:02;30.85;28.55;35.23;;
64393;Laerm;50712;49.506;10.400;2023-04-24T02:27:32;31.92;28.97;37.05;;
64393;Laerm;50712;49.506;10.400;2023-04-24T02:28:03;33.79;29.05;48.61;;
64393;Laerm;50712;49.506;10.400;2023-04-24T02:29:03;30.88;28.51;42.81;;
64393;Laerm;50712;49.506;10.400;2023-04-24T02:29:34;30.91;28.15;38.77;;
64393;Laerm;50712;49.506;10.400;2023-04-24T02:30:05;30.59;28.38;34.11;;
64393;Laerm;50712;49.506;10.400;2023-04-24T02:30:36;31.31;28.97;38.87;;
64393;Laerm;50712;49.506;10.400;2023-04-24T02:31:06;30.16;28.49;33.54;;
64393;Laerm;50712;49.506;10.400;2023-04-24T02:31:37;29.92;28.23;33.91;;
64393;Laerm;50712;49.506;10.400;2023-04-24T02:32:07;31.34;28.80;37.88;;
64393;Laerm;50712;49.506;10.400;2023-04-24T02:32:41;31.40;28.59;37.78;;
64393;Laerm;50712;49.506;10.400;2023-04-24T02:33:14;30.03;28.27;35.63;;
64393;Laerm;50712;49.506;10.400;2023-04-24T02:33:45;30.31;28.24;46.40;;
64393;Laerm;50712;49.506;10.400;2023-04-24T02:34:16;29.74;28.35;33.42;;
64393;Laerm;50712;49.506;10.400;2023-04-24T02:34:46;29.94;27.87;38.03;;
64393;Laerm;50712;49.506;10.400;2023-04-24T02:35:17;29.38;27.63;35.53;;
64393;Laerm;50712;49.506;10.400;2023-04-24T02:35:47;29.90;27.70;35.13;;
64393;Laerm;50712;49.506;10.400;2023-04-24T02:36:17;30.20;28.31;37.23;;
64393;Laerm;50712;49.506;10.400;2023-04-24T02:36:48;29.62;28.16;32.62;;
64393;Laerm;50712;49.506;10.400;2023-04-24T02:37:19;32.99;28.21;41.87;;
64393;Laerm;50712;49.506;10.400;2023-04-24T02:37:49;40.41;30.18;50.05;;
64393;Laerm;50712;49.506;10.400;2023-04-24T02:38:19;36.70;29.29;46.48;;
64393;Laerm;50712;49.506;10.400;2023-04-24T02:38:50;37.67;30.97;45.78;;
64393;Laerm;50712;49.506;10.400;2023-04-24T02:39:20;33.04;28.88;38.91;;
64393;Laerm;50712;49.506;10.400;2023-04-24T02:39:50;31.53;29.11;35.58;;
64393;Laerm;50712;49.506;10.400;2023-04-24T02:40:21;30.72;28.96;34.59;;
64393;Laerm;50712;49.506;10.400;2023-04-24T02:40:51;30.38;28.29;35.32;;
64393;Laerm;50712;49.506;10.400;2023-04-24T02:41:22;29.70;28.08;32.27;;
64393;Laerm;50712;49.506;10.400;2023-04-24T02:41:52;29.53;27.72;34.29;;
64393;Laerm;50712;49.506;10.400;2023-04-24T02:42:22;29.77;27.97;32.52;;
64393;Laerm;50712;49.506;10.400;2023-04-24T02:42:53;30.36;28.49;34.32;;
64393;Laerm;50712;49.506;10.400;2023-04-24T02:43:23;30.13;28.46;34.16;;
64393;Laerm;50712;49.506;10.400;2023-04-24T02:43:54;29.49;28.23;31.61;;
64393;Laerm;50712;49.506;10.400;2023-04-24T02:44:24;29.62;28.12;32.28;;
64393;Laerm;50712;49.506;10.400;2023-04-24T02:44:55;29.47;28.11;32.93;;
64393;Laerm;50712;49.506;10.400;2023-04-24T02:45:25;29.02;27.91;30.89;;
64393;Laerm;50712;49.506;10.400;2023-04-24T02:45:55;29.09;27.73;30.56;;
64393;Laerm;50712;49.506;10.400;2023-04-24T02:46:26;30.43;27.95;44.25;;
64393;Laerm;50712;49.506;10.400;2023-04-24T02:46:56;29.43;28.02;37.05;;
64393;Laerm;50712;49.506;10.400;2023-04-24T02:47:27;29.97;28.34;36.43;;
64393;Laerm;50712;49.506;10.400;2023-04-24T02:47:57;30.04;28.36;32.48;;
64393;Laerm;50712;49.506;10.400;2023-04-24T02:48:28;29.68;28.35;31.55;;
64393;Laerm;50712;49.506;10.400;2023-04-24T02:48:58;29.72;27.89;32.64;;
64393;Laerm;50712;49.506;10.400;2023-04-24T02:49:28;29.96;28.08;34.77;;
64393;Laerm;50712;49.506;10.400;2023-04-24T02:49:59;30.43;28.66;33.26;;
64393;Laerm;50712;49.506;10.400;2023-04-24T02:50:29;31.05;28.91;34.76;;
64393;Laerm;50712;49.506;10.400;2023-04-24T02:50:59;30.13;28.36;33.90;;
64393;Laerm;50712;49.506;10.400;2023-04-24T02:51:30;30.96;28.58;43.29;;
64393;Laerm;50712;49.506;10.400;2023-04-24T02:52:01;30.20;28.46;32.56;;
64393;Laerm;50712;49.506;10.400;2023-04-24T02:52:32;30.04;28.56;32.35;;
64393;Laerm;50712;49.506;10.400;2023-04-24T02:53:02;30.29;28.52;37.52;;
64393;Laerm;50712;49.506;10.400;2023-04-24T02:53:33;29.89;28.13;32.32;;